createdAt,value
2019-02-23T00:01:13.535Z,-5.90
2019-02-23T00:03:43.974Z,-5.90
2019-02-23T00:06:14.219Z,-6.04
2019-02-23T00:08:44.492Z,-6.15
2019-02-23T00:11:14.741Z,-6.18
2019-02-23T00:13:45.010Z,-6.11
2019-02-23T00:16:16.714Z,-6.01
2019-02-23T00:18:47.010Z,-5.96
2019-02-23T00:21:17.263Z,-5.87
2019-02-23T00:23:47.903Z,-5.71
2019-02-23T00:26:18.165Z,-5.64
2019-02-23T00:28:48.441Z,-5.70
2019-02-23T00:31:18.755Z,-5.73
2019-02-23T00:33:49.017Z,-5.73
2019-02-23T00:36:19.269Z,-5.70
2019-02-23T00:38:49.606Z,-5.60
2019-02-23T00:41:19.850Z,-5.54
2019-02-23T00:43:50.107Z,-5.59
2019-02-23T00:46:20.352Z,-5.58
2019-02-23T00:48:50.612Z,-5.54
2019-02-23T00:51:20.861Z,-5.53
2019-02-23T00:53:51.125Z,-5.53
2019-02-23T00:56:21.369Z,-5.55
2019-02-23T00:58:51.633Z,-5.64
2019-02-23T01:01:21.888Z,-5.66
2019-02-23T01:03:52.153Z,-5.71
2019-02-23T01:06:22.401Z,-5.70
2019-02-23T01:08:52.671Z,-5.68
2019-02-23T01:11:22.924Z,-5.66
2019-02-23T01:13:53.187Z,-5.66
2019-02-23T01:16:23.733Z,-5.55
2019-02-23T01:18:54.000Z,-5.44
2019-02-23T01:21:24.243Z,-5.55
2019-02-23T01:23:54.513Z,-5.50
2019-02-23T01:26:24.766Z,-5.41
2019-02-23T01:28:55.048Z,-5.34
2019-02-23T01:31:25.301Z,-5.32
2019-02-23T01:33:55.573Z,-5.16
2019-02-23T01:36:25.821Z,-5.10
2019-02-23T01:38:56.091Z,-5.04
2019-02-23T01:41:26.349Z,-4.90
2019-02-23T01:43:56.627Z,-4.85
2019-02-23T01:46:26.881Z,-4.87
2019-02-23T01:48:58.008Z,-4.84
2019-02-23T01:51:28.253Z,-4.91
2019-02-23T01:53:58.516Z,-4.93
2019-02-23T01:56:28.764Z,-4.97
2019-02-23T01:58:59.029Z,-4.90
2019-02-23T02:01:29.278Z,-4.98
2019-02-23T02:03:59.542Z,-5.01
2019-02-23T02:06:29.787Z,-5.17
2019-02-23T02:09:00.060Z,-5.29
2019-02-23T02:11:30.923Z,-5.29
2019-02-23T02:14:01.192Z,-5.29
2019-02-23T02:16:32.144Z,-5.38
2019-02-23T02:19:02.408Z,-5.41
2019-02-23T02:21:32.657Z,-5.37
2019-02-23T02:24:02.916Z,-5.39
2019-02-23T02:26:33.157Z,-5.37
2019-02-23T02:29:03.420Z,-5.36
2019-02-23T02:31:33.664Z,-5.43
2019-02-23T02:34:13.024Z,-5.42
2019-02-23T02:36:43.264Z,-5.51
2019-02-23T02:39:16.460Z,-5.54
2019-02-23T02:41:46.713Z,-5.59
2019-02-23T02:44:16.966Z,-5.60
2019-02-23T02:46:47.224Z,-5.63
2019-02-23T02:49:17.466Z,-5.66
2019-02-23T02:51:47.715Z,-5.87
2019-02-23T02:54:17.963Z,-6.02
2019-02-23T02:56:48.212Z,-6.16
2019-02-23T02:59:18.468Z,-6.32
2019-02-23T03:01:48.711Z,-6.27
2019-02-23T03:04:19.331Z,-6.29
2019-02-23T03:06:49.580Z,-6.38
2019-02-23T03:09:19.824Z,-6.44
2019-02-23T03:11:50.069Z,-6.56
2019-02-23T03:14:20.322Z,-6.56
2019-02-23T03:16:50.742Z,-6.45
2019-02-23T03:19:21.256Z,-6.52
2019-02-23T03:21:51.507Z,-6.57
2019-02-23T03:24:21.761Z,-6.65
2019-02-23T03:26:52.010Z,-6.53
2019-02-23T03:29:22.256Z,-6.39
2019-02-23T03:31:52.506Z,-6.31
2019-02-23T03:34:22.752Z,-6.33
2019-02-23T03:36:52.998Z,-6.50
2019-02-23T03:39:23.253Z,-6.50
2019-02-23T03:41:53.495Z,-6.55
2019-02-23T03:44:23.754Z,-6.47
2019-02-23T03:46:54.072Z,-6.36
2019-02-23T03:49:24.329Z,-6.31
2019-02-23T03:51:54.574Z,-6.31
2019-02-23T03:54:24.823Z,-6.17
2019-02-23T03:56:55.066Z,-5.95
2019-02-23T03:59:25.323Z,-5.83
2019-02-23T04:01:55.567Z,-5.75
2019-02-23T04:04:25.893Z,-5.75
2019-02-23T04:06:56.410Z,-5.75
2019-02-23T04:09:26.662Z,-5.83
2019-02-23T04:11:56.909Z,-5.80
2019-02-23T04:14:27.157Z,-5.82
2019-02-23T04:16:57.409Z,-5.70
2019-02-23T04:19:27.659Z,-5.62
2019-02-23T04:21:57.903Z,-5.63
2019-02-23T04:24:28.155Z,-5.55
2019-02-23T04:26:58.399Z,-5.48
2019-02-23T04:29:28.665Z,-5.53
2019-02-23T04:31:59.283Z,-5.61
2019-02-23T04:34:29.528Z,-5.61
2019-02-23T04:37:00.943Z,-5.59
2019-02-23T04:39:31.200Z,-5.47
2019-02-23T04:42:01.443Z,-5.41
2019-02-23T04:44:31.775Z,-5.44
2019-02-23T04:47:02.012Z,-5.46
2019-02-23T04:49:32.266Z,-5.44
2019-02-23T04:52:02.517Z,-5.45
2019-02-23T04:54:36.099Z,-5.46
2019-02-23T04:57:06.345Z,-5.39
2019-02-23T04:59:36.592Z,-5.42
2019-02-23T05:02:06.839Z,-5.38
2019-02-23T05:04:37.357Z,-5.38
2019-02-23T05:07:07.614Z,-5.29
2019-02-23T05:09:38.146Z,-5.31
2019-02-23T05:12:08.398Z,-5.22
2019-02-23T05:14:38.727Z,-5.36
2019-02-23T05:17:09.972Z,-5.27
2019-02-23T05:19:40.492Z,-5.23
2019-02-23T05:22:10.740Z,-5.26
2019-02-23T05:24:40.993Z,-5.23
2019-02-23T05:27:11.243Z,-5.16
2019-02-23T05:29:41.565Z,-5.12
2019-02-23T05:32:11.812Z,-5.16
2019-02-23T05:34:42.076Z,-5.21
2019-02-23T05:37:12.320Z,-5.25
2019-02-23T05:39:42.588Z,-5.26
2019-02-23T05:42:12.835Z,-5.21
2019-02-23T05:44:43.370Z,-5.23
2019-02-23T05:47:13.612Z,-5.22
2019-02-23T05:49:43.891Z,-5.30
2019-02-23T05:52:14.319Z,-5.33
2019-02-23T05:54:44.588Z,-5.21
2019-02-23T05:57:14.834Z,-5.20
2019-02-23T05:59:46.269Z,-5.18
2019-02-23T06:02:16.509Z,-5.03
2019-02-23T06:04:46.804Z,-4.89
2019-02-23T06:07:17.113Z,-5.08
2019-02-23T06:09:47.443Z,-5.01
2019-02-23T06:12:17.693Z,-4.93
2019-02-23T06:14:47.956Z,-4.75
2019-02-23T06:17:18.205Z,-4.53
2019-02-23T06:19:48.481Z,-4.41
2019-02-23T06:22:18.741Z,-4.41
2019-02-23T06:24:50.005Z,-4.15
2019-02-23T06:27:20.256Z,-4.13
2019-02-23T06:29:50.531Z,-4.16
2019-02-23T06:32:20.776Z,-4.03
2019-02-23T06:34:51.053Z,-3.50
2019-02-23T06:37:21.323Z,-2.29
2019-02-23T06:39:51.593Z,-0.18
2019-02-23T06:42:21.846Z,0.87
2019-02-23T06:44:53.302Z,1.47
2019-02-23T06:47:23.555Z,0.38
2019-02-23T06:49:53.823Z,0.24
2019-02-23T06:52:24.088Z,0.63
2019-02-23T06:54:54.398Z,0.89
2019-02-23T06:57:25.120Z,0.52
2019-02-23T06:59:55.399Z,0.06
2019-02-23T07:02:25.798Z,-0.29
2019-02-23T07:04:56.077Z,-0.74
2019-02-23T07:07:26.703Z,-1.11
2019-02-23T07:09:57.137Z,-1.40
2019-02-23T07:12:27.409Z,-1.57
2019-02-23T07:14:57.681Z,-1.61
2019-02-23T07:17:28.960Z,-1.70
2019-02-23T07:20:00.423Z,-1.76
2019-02-23T07:22:30.687Z,-1.82
2019-02-23T07:25:00.944Z,-1.85
2019-02-23T07:27:31.405Z,-1.71
2019-02-23T07:30:02.952Z,-1.56
2019-02-23T07:32:33.483Z,-1.42
2019-02-23T07:35:04.306Z,-1.03
2019-02-23T07:37:34.565Z,-0.54
2019-02-23T07:40:08.065Z,1.75
2019-02-23T07:42:38.312Z,2.23
2019-02-23T07:45:10.114Z,3.58
2019-02-23T07:47:40.365Z,2.58
2019-02-23T07:50:13.051Z,1.58
2019-02-23T07:52:43.298Z,1.25
2019-02-23T07:55:13.584Z,0.66
2019-02-23T07:57:43.898Z,0.64
2019-02-23T08:00:14.503Z,0.17
2019-02-23T08:02:44.759Z,0.19
2019-02-23T08:05:15.001Z,0.19
2019-02-23T08:07:45.247Z,0.22
2019-02-23T08:10:15.496Z,0.45
2019-02-23T08:12:46.302Z,0.63
2019-02-23T08:15:16.555Z,0.73
2019-02-23T08:17:47.806Z,0.76
2019-02-23T08:20:18.054Z,0.84
2019-02-23T08:22:48.296Z,0.98
2019-02-23T08:25:18.560Z,1.09
2019-02-23T08:27:48.801Z,1.10
2019-02-23T08:30:19.038Z,1.12
2019-02-23T08:32:49.558Z,1.69
2019-02-23T08:35:19.791Z,1.54
2019-02-23T08:37:50.047Z,1.72
2019-02-23T08:40:20.291Z,1.60
2019-02-23T08:42:50.547Z,1.67
2019-02-23T08:45:22.562Z,1.59
2019-02-23T08:47:52.832Z,1.81
2019-02-23T08:50:24.684Z,2.76
2019-02-23T08:52:55.155Z,5.24
2019-02-23T08:55:25.459Z,5.95
2019-02-23T08:57:55.816Z,5.23
2019-02-23T09:00:26.067Z,4.60
2019-02-23T09:02:56.420Z,3.95
2019-02-23T09:05:26.665Z,3.65
2019-02-23T09:07:57.815Z,3.73
2019-02-23T09:10:28.071Z,3.44
2019-02-23T09:12:58.304Z,3.40
2019-02-23T09:15:29.997Z,3.14
2019-02-23T09:18:01.290Z,3.49
2019-02-23T09:20:31.541Z,3.60
2019-02-23T09:23:01.813Z,3.54
2019-02-23T09:25:33.066Z,3.35
2019-02-23T09:28:03.328Z,3.54
2019-02-23T09:30:33.576Z,3.38
2019-02-23T09:33:03.837Z,3.16
2019-02-23T09:35:34.086Z,3.05
2019-02-23T09:38:04.352Z,3.41
2019-02-23T09:40:35.659Z,3.05
2019-02-23T09:43:05.930Z,3.04
2019-02-23T09:45:36.267Z,3.24
2019-02-23T09:48:06.526Z,3.19
2019-02-23T09:50:36.843Z,3.29
2019-02-23T09:53:11.277Z,3.37
2019-02-23T09:55:39.050Z,3.42
2019-02-23T09:58:09.372Z,3.29
2019-02-23T10:00:42.734Z,2.85
2019-02-23T10:03:16.059Z,2.96
2019-02-23T10:05:47.773Z,2.78
2019-02-23T10:08:20.403Z,2.70
2019-02-23T10:10:52.152Z,3.15
2019-02-23T10:13:27.440Z,3.24
2019-02-23T10:16:06.285Z,3.32
2019-02-23T10:18:41.837Z,3.19
2019-02-23T10:21:14.260Z,2.56
2019-02-23T10:23:52.378Z,2.51
2019-02-23T10:26:23.762Z,2.71
2019-02-23T10:28:58.063Z,2.85
2019-02-23T10:31:29.532Z,3.03
2019-02-23T10:33:59.799Z,3.33
2019-02-23T10:36:31.979Z,3.26
2019-02-23T10:39:05.273Z,3.03
2019-02-23T10:41:37.217Z,3.38
2019-02-23T10:44:07.815Z,3.41
2019-02-23T10:49:39.180Z,3.56
2019-02-23T10:52:10.633Z,3.59
2019-02-23T10:54:40.898Z,3.64
2019-02-23T10:57:11.163Z,3.75
2019-02-23T10:59:41.410Z,3.71
2019-02-23T11:02:12.265Z,3.66
2019-02-23T11:04:42.803Z,3.50
2019-02-23T11:07:13.081Z,3.62
2019-02-23T11:09:43.350Z,4.01
2019-02-23T11:12:13.632Z,3.88
2019-02-23T11:14:45.882Z,3.75
2019-02-23T11:17:16.606Z,3.54
2019-02-23T11:19:47.669Z,3.49
2019-02-23T11:22:17.943Z,3.90
2019-02-23T11:24:48.456Z,3.93
2019-02-23T11:27:18.715Z,3.71
2019-02-23T11:29:48.956Z,3.57
2019-02-23T11:32:19.538Z,3.84
2019-02-23T11:34:49.784Z,3.98
2019-02-23T11:37:20.069Z,4.18
2019-02-23T11:39:50.306Z,3.95
2019-02-23T11:42:20.576Z,3.71
2019-02-23T11:44:51.950Z,3.79
2019-02-23T11:47:22.235Z,3.93
2019-02-23T11:49:52.475Z,3.95
2019-02-23T11:52:22.796Z,3.97
2019-02-23T11:54:53.054Z,4.00
2019-02-23T11:57:23.588Z,3.80
2019-02-23T11:59:55.519Z,3.81
2019-02-23T12:02:25.772Z,3.95
2019-02-23T12:04:56.012Z,3.76
2019-02-23T12:07:26.265Z,3.50
2019-02-23T12:09:57.413Z,3.55
2019-02-23T12:12:27.658Z,3.44
2019-02-23T12:14:58.110Z,3.43
2019-02-23T12:17:29.566Z,3.29
2019-02-23T12:20:02.231Z,3.55
2019-02-23T12:22:32.812Z,3.55
2019-02-23T12:25:03.073Z,3.59
2019-02-23T12:27:33.317Z,3.72
2019-02-23T12:30:05.413Z,3.60
2019-02-23T12:32:35.663Z,3.52
2019-02-23T12:35:09.526Z,3.53
2019-02-23T12:37:39.759Z,3.27
2019-02-23T12:40:11.843Z,3.31
2019-02-23T12:42:42.080Z,3.33
2019-02-23T12:45:15.583Z,3.08
2019-02-23T12:47:45.830Z,3.15
2019-02-23T12:50:16.138Z,3.25
2019-02-23T12:52:46.961Z,3.30
2019-02-23T12:55:17.520Z,3.56
2019-02-23T12:57:47.779Z,3.26
2019-02-23T13:00:19.209Z,3.31
2019-02-23T13:02:51.136Z,3.55
2019-02-23T13:05:28.049Z,3.67
2019-02-23T13:07:58.397Z,3.56
2019-02-23T13:10:28.839Z,3.71
2019-02-23T13:13:05.278Z,3.89
2019-02-23T13:15:44.405Z,3.78
2019-02-23T13:18:40.524Z,3.86
2019-02-23T13:21:42.103Z,3.96
2019-02-23T13:24:31.911Z,3.96
2019-02-23T13:27:08.111Z,3.74
2019-02-23T13:29:51.781Z,3.49
2019-02-23T13:32:58.723Z,3.33
2019-02-23T13:35:52.818Z,3.55
2019-02-23T13:38:33.734Z,3.54
2019-02-23T13:41:19.193Z,3.75
2019-02-23T13:44:07.012Z,3.58
2019-02-23T13:46:40.525Z,3.46
2019-02-23T13:49:42.590Z,3.47
2019-02-23T13:52:27.993Z,3.19
2019-02-23T13:55:17.719Z,3.22
2019-02-23T13:58:08.685Z,3.09
2019-02-23T14:00:50.475Z,3.38
2019-02-23T14:03:36.740Z,3.55
2019-02-23T14:06:19.297Z,3.12
2019-02-23T14:09:13.581Z,2.98
2019-02-23T14:11:52.928Z,3.20
2019-02-23T14:14:29.317Z,3.16
2019-02-23T14:17:11.602Z,3.15
2019-02-23T14:19:50.812Z,3.09
2019-02-23T14:22:40.498Z,3.31
2019-02-23T14:25:36.586Z,3.31
2019-02-23T14:28:28.754Z,3.48
2019-02-23T14:31:17.379Z,3.33
2019-02-23T14:34:08.730Z,3.20
2019-02-23T14:37:07.199Z,3.21
2019-02-23T14:39:43.829Z,3.09
2019-02-23T14:42:34.967Z,3.25
2019-02-23T14:45:20.512Z,3.32
2019-02-23T14:47:59.160Z,3.26
2019-02-23T14:50:38.347Z,3.30
2019-02-23T14:53:23.688Z,3.23
2019-02-23T14:56:08.745Z,3.13
2019-02-23T14:58:42.282Z,2.98
2019-02-23T15:01:36.333Z,2.96
2019-02-23T15:04:37.998Z,2.94
2019-02-23T15:07:32.355Z,2.94
2019-02-23T15:10:20.785Z,2.68
2019-02-23T15:13:14.096Z,2.52
2019-02-23T15:15:59.790Z,2.51
2019-02-23T15:18:42.170Z,2.57
2019-02-23T15:21:27.468Z,2.44
2019-02-23T15:24:19.140Z,2.45
2019-02-23T15:26:53.572Z,2.49
2019-02-23T15:30:01.326Z,2.35
2019-02-23T15:32:49.953Z,2.14
2019-02-23T15:35:23.473Z,2.02
2019-02-23T15:38:19.418Z,1.78
2019-02-23T15:41:08.106Z,1.61
2019-02-23T15:43:47.414Z,1.49
2019-02-23T15:46:26.707Z,1.32
2019-02-23T15:49:18.661Z,1.22
2019-02-23T15:51:48.961Z,1.14
2019-02-23T15:54:19.394Z,1.04
2019-02-23T15:56:49.612Z,1.13
2019-02-23T15:59:19.883Z,1.19
2019-02-23T16:01:50.408Z,1.12
2019-02-23T16:04:20.668Z,1.10
2019-02-23T16:06:50.925Z,1.05
2019-02-23T16:09:21.262Z,1.05
2019-02-23T16:11:51.532Z,1.03
2019-02-23T16:14:21.802Z,0.89
2019-02-23T16:16:52.372Z,0.88
2019-02-23T16:19:22.619Z,0.89
2019-02-23T16:21:53.185Z,0.83
2019-02-23T16:24:23.527Z,0.67
2019-02-23T16:26:53.826Z,0.75
2019-02-23T16:29:24.096Z,0.58
2019-02-23T16:31:54.732Z,0.58
2019-02-23T16:34:26.038Z,0.63
2019-02-23T16:36:56.479Z,0.57
2019-02-23T16:39:27.026Z,0.51
2019-02-23T16:41:57.279Z,0.51
2019-02-23T16:44:27.541Z,0.44
2019-02-23T16:46:57.795Z,0.44
2019-02-23T16:49:28.051Z,0.41
2019-02-23T16:51:58.325Z,0.41
2019-02-23T16:54:28.663Z,0.34
2019-02-23T16:57:00.296Z,0.33
2019-02-23T16:59:31.635Z,0.27
2019-02-23T17:02:02.099Z,0.08
2019-02-23T17:04:32.363Z,0.08
2019-02-23T17:07:02.632Z,0.11
2019-02-23T17:09:32.889Z,0.09
2019-02-23T17:12:03.158Z,-0.09
2019-02-23T17:14:33.435Z,0.01
2019-02-23T17:17:04.679Z,-0.07
2019-02-23T17:19:34.950Z,-0.20
2019-02-23T17:22:05.807Z,-0.28
2019-02-23T17:24:37.204Z,-0.31
2019-02-23T17:27:07.854Z,-0.39
2019-02-23T17:29:38.326Z,-0.39
2019-02-23T17:32:08.937Z,-0.42
2019-02-23T17:34:39.263Z,-0.49
2019-02-23T17:37:11.311Z,-0.61
2019-02-23T17:39:41.861Z,-0.67
2019-02-23T17:42:12.140Z,-0.82
2019-02-23T17:44:42.660Z,-0.92
2019-02-23T17:47:13.203Z,-0.92
2019-02-23T17:49:46.866Z,-0.94
2019-02-23T17:52:17.278Z,-1.00
2019-02-23T17:54:48.747Z,-1.09
2019-02-23T17:57:22.143Z,-1.13
2019-02-23T17:59:52.716Z,-1.17
2019-02-23T18:02:24.009Z,-1.15
2019-02-23T18:04:55.468Z,-1.14
2019-02-23T18:07:26.901Z,-1.23
2019-02-23T18:09:58.391Z,-1.20
2019-02-23T18:12:29.825Z,-1.22
2019-02-23T18:15:01.272Z,-1.32
2019-02-23T18:17:34.689Z,-1.37
2019-02-23T18:20:10.753Z,-1.41
2019-02-23T18:22:43.316Z,-1.43
2019-02-23T18:25:13.603Z,-1.39
2019-02-23T18:27:44.065Z,-1.38
2019-02-23T18:30:15.870Z,-1.39
2019-02-23T18:32:46.134Z,-1.42
2019-02-23T18:35:16.571Z,-1.41
2019-02-23T18:37:48.001Z,-1.40
2019-02-23T18:40:19.464Z,-1.41
2019-02-23T18:42:50.920Z,-1.42
2019-02-23T18:45:22.384Z,-1.47
2019-02-23T18:47:54.135Z,-1.51
2019-02-23T18:50:24.667Z,-1.54
2019-02-23T18:52:56.112Z,-1.56
2019-02-23T18:55:26.946Z,-1.60
2019-02-23T18:57:59.699Z,-1.62
2019-02-23T19:00:30.178Z,-1.62
2019-02-23T19:03:00.715Z,-1.71
2019-02-23T19:05:32.185Z,-1.74
2019-02-23T19:08:02.661Z,-1.71
2019-02-23T19:10:35.664Z,-1.71
2019-02-23T19:13:08.519Z,-1.67
2019-02-23T19:15:38.901Z,-1.65
2019-02-23T19:18:09.164Z,-1.67
2019-02-23T19:20:39.455Z,-1.72
2019-02-23T19:23:09.783Z,-1.80
2019-02-23T19:25:40.066Z,-1.78
2019-02-23T19:28:10.594Z,-1.77
2019-02-23T19:30:40.850Z,-1.77
2019-02-23T19:33:11.121Z,-1.76
2019-02-23T19:35:41.650Z,-1.74
2019-02-23T19:38:11.935Z,-1.74
2019-02-23T19:40:44.173Z,-1.76
2019-02-23T19:43:15.967Z,-1.75
2019-02-23T19:45:47.934Z,-1.77
2019-02-23T19:48:18.359Z,-1.82
2019-02-23T19:50:53.470Z,-1.85
2019-02-23T19:53:23.749Z,-1.82
2019-02-23T19:55:54.124Z,-1.82
2019-02-23T19:58:25.312Z,-1.83
2019-02-23T20:00:55.857Z,-1.80
2019-02-23T20:03:26.441Z,-1.77
2019-02-23T20:05:57.195Z,-1.75
2019-02-23T20:08:28.884Z,-1.72
2019-02-23T20:10:59.527Z,-1.64
2019-02-23T20:13:29.799Z,-1.62
2019-02-23T20:16:00.077Z,-1.59
2019-02-23T20:18:32.065Z,-1.57
2019-02-23T20:21:04.175Z,-1.61
2019-02-23T20:23:36.545Z,-1.62
2019-02-23T20:26:09.668Z,-1.63
2019-02-23T20:28:41.137Z,-1.67
2019-02-23T20:31:13.186Z,-1.72
2019-02-23T20:33:44.046Z,-1.79
2019-02-23T20:36:15.481Z,-1.77
2019-02-23T20:38:48.043Z,-1.76
2019-02-23T20:41:20.220Z,-1.74
2019-02-23T20:43:55.316Z,-1.80
2019-02-23T20:46:30.121Z,-1.79
2019-02-23T20:49:02.568Z,-1.92
2019-02-23T20:51:35.730Z,-1.87
2019-02-23T20:54:11.007Z,-1.89
2019-02-23T20:56:50.883Z,-1.82
2019-02-23T20:59:25.479Z,-1.76
2019-02-23T21:01:58.089Z,-1.74
2019-02-23T21:04:30.531Z,-1.72
2019-02-23T21:07:05.958Z,-1.76
2019-02-23T21:09:42.440Z,-1.73
2019-02-23T21:12:16.335Z,-1.62
2019-02-23T21:14:48.185Z,-1.54
2019-02-23T21:17:20.254Z,-1.55
2019-02-23T21:19:54.174Z,-1.48
2019-02-23T21:22:32.305Z,-1.48
2019-02-23T21:25:07.291Z,-1.42
2019-02-23T21:27:37.655Z,-1.34
2019-02-23T21:30:10.754Z,-1.38
2019-02-23T21:32:41.479Z,-1.36
2019-02-23T21:35:12.913Z,-1.45
2019-02-23T21:37:43.464Z,-1.41
2019-02-23T21:40:14.898Z,-1.48
2019-02-23T21:42:46.373Z,-1.48
2019-02-23T21:45:16.648Z,-1.55
2019-02-23T21:47:47.267Z,-1.62
2019-02-23T21:50:17.531Z,-1.63
2019-02-23T21:52:47.813Z,-1.64
2019-02-23T21:55:18.080Z,-1.72
2019-02-23T21:57:48.741Z,-1.70
2019-02-23T22:00:22.020Z,-1.68
2019-02-23T22:02:52.479Z,-1.67
2019-02-23T22:05:22.753Z,-1.67
2019-02-23T22:07:52.991Z,-1.68
2019-02-23T22:10:23.717Z,-1.75
2019-02-23T22:12:53.993Z,-1.73
2019-02-23T22:15:24.265Z,-1.70
2019-02-23T22:17:54.533Z,-1.70
2019-02-23T22:20:24.796Z,-1.63
2019-02-23T22:22:55.165Z,-1.57
2019-02-23T22:25:25.417Z,-1.52
2019-02-23T22:27:55.725Z,-1.46
2019-02-23T22:30:25.996Z,-1.40
2019-02-23T22:32:56.276Z,-1.42
2019-02-23T22:35:29.281Z,-1.51
2019-02-23T22:38:03.890Z,-1.51
2019-02-23T22:40:34.322Z,-1.57
2019-02-23T22:43:04.598Z,-1.55
2019-02-23T22:45:34.895Z,-1.58
2019-02-23T22:48:05.168Z,-1.60
2019-02-23T22:50:35.887Z,-1.62
2019-02-23T22:53:08.046Z,-1.60
2019-02-23T22:55:38.334Z,-1.57
2019-02-23T22:58:08.596Z,-1.60
2019-02-23T23:00:40.579Z,-1.61
2019-02-23T23:03:12.446Z,-1.57
2019-02-23T23:05:42.726Z,-1.65
2019-02-23T23:08:12.998Z,-1.63
2019-02-23T23:10:43.267Z,-1.61
2019-02-23T23:13:13.543Z,-1.63
2019-02-23T23:15:43.826Z,-1.66
2019-02-23T23:18:14.103Z,-1.67
2019-02-23T23:20:44.374Z,-1.64
2019-02-23T23:23:14.666Z,-1.61
2019-02-23T23:25:44.934Z,-1.61
2019-02-23T23:28:15.214Z,-1.58
2019-02-23T23:30:45.469Z,-1.56
2019-02-23T23:33:15.745Z,-1.45
2019-02-23T23:35:46.027Z,-1.36
2019-02-23T23:38:16.301Z,-1.19
2019-02-23T23:40:46.608Z,-1.11
2019-02-23T23:43:18.378Z,-1.05
2019-02-23T23:45:48.649Z,-0.98
2019-02-23T23:48:18.929Z,-0.87
2019-02-23T23:50:49.199Z,-0.83
2019-02-23T23:53:19.535Z,-0.73
2019-02-23T23:55:49.795Z,-0.73
2019-02-23T23:58:20.044Z,-0.62
